sensor_id;sensor_type;location;lat;lon;timestamp;pressure;altitude;pressure_sealevel;temperature;humidity
24422;BME280;12600;53.326;-6.298;2022-12-16T00:00:09;101390.25;;;1.07;87.29
24422;BME280;12600;53.326;-6.298;2022-12-16T00:02:59;101384.28;;;1.05;87.26
24422;BME280;12600;53.326;-6.298;2022-12-16T00:05:49;101389.53;;;1.12;87.21
24422;BME280;12600;53.326;-6.298;2022-12-16T00:08:40;101388.28;;;1.15;86.53
24422;BME280;12600;53.326;-6.298;2022-12-16T00:11:29;101376.94;;;1.13;87.22
24422;BME280;12600;53.326;-6.298;2022-12-16T00:14:19;101368.88;;;1.13;87.22
24422;BME280;12600;53.326;-6.298;2022-12-16T00:17:08;101372.56;;;1.11;86.52
24422;BME280;12600;53.326;-6.298;2022-12-16T00:19:58;101371.75;;;1.11;86.59
24422;BME280;12600;53.326;-6.298;2022-12-16T00:22:51;101374.09;;;1.07;86.46
24422;BME280;12600;53.326;-6.298;2022-12-16T00:25:43;101359.09;;;1.00;86.44
24422;BME280;12600;53.326;-6.298;2022-12-16T00:28:33;101367.50;;;1.03;85.93
24422;BME280;12600;53.326;-6.298;2022-12-16T00:31:22;101370.66;;;1.00;85.54
24422;BME280;12600;53.326;-6.298;2022-12-16T00:34:12;101361.72;;;0.88;85.83
24422;BME280;12600;53.326;-6.298;2022-12-16T00:37:01;101360.69;;;0.89;85.61
24422;BME280;12600;53.326;-6.298;2022-12-16T00:39:51;101364.41;;;0.88;85.86
24422;BME280;12600;53.326;-6.298;2022-12-16T00:42:43;101372.47;;;0.88;85.93
24422;BME280;12600;53.326;-6.298;2022-12-16T00:45:32;101363.47;;;0.82;85.64
24422;BME280;12600;53.326;-6.298;2022-12-16T00:48:22;101366.50;;;0.86;85.98
24422;BME280;12600;53.326;-6.298;2022-12-16T00:51:12;101348.00;;;0.78;85.79
24422;BME280;12600;53.326;-6.298;2022-12-16T00:54:01;101364.53;;;0.81;85.92
24422;BME280;12600;53.326;-6.298;2022-12-16T00:56:51;101357.59;;;0.74;86.14
24422;BME280;12600;53.326;-6.298;2022-12-16T00:59:43;101352.63;;;0.71;85.48
24422;BME280;12600;53.326;-6.298;2022-12-16T01:02:32;101367.94;;;0.70;85.29
24422;BME280;12600;53.326;-6.298;2022-12-16T01:05:23;101359.38;;;0.62;84.80
24422;BME280;12600;53.326;-6.298;2022-12-16T01:08:14;101359.25;;;0.57;84.68
24422;BME280;12600;53.326;-6.298;2022-12-16T01:11:03;101359.69;;;0.53;85.18
24422;BME280;12600;53.326;-6.298;2022-12-16T01:13:53;101370.66;;;0.52;84.95
24422;BME280;12600;53.326;-6.298;2022-12-16T01:16:43;101374.00;;;0.47;85.09
24422;BME280;12600;53.326;-6.298;2022-12-16T01:19:33;101356.78;;;0.37;84.74
24422;BME280;12600;53.326;-6.298;2022-12-16T01:22:22;101376.34;;;0.44;84.56
24422;BME280;12600;53.326;-6.298;2022-12-16T01:25:12;101375.59;;;0.37;84.56
24422;BME280;12600;53.326;-6.298;2022-12-16T01:28:01;101371.34;;;0.29;84.74
24422;BME280;12600;53.326;-6.298;2022-12-16T01:30:55;101383.28;;;0.33;84.93
24422;BME280;12600;53.326;-6.298;2022-12-16T01:33:50;101381.63;;;0.32;84.97
24422;BME280;12600;53.326;-6.298;2022-12-16T01:36:39;101381.03;;;0.30;85.24
24422;BME280;12600;53.326;-6.298;2022-12-16T01:39:28;101377.31;;;0.31;85.56
24422;BME280;12600;53.326;-6.298;2022-12-16T01:42:21;101377.75;;;0.28;85.46
24422;BME280;12600;53.326;-6.298;2022-12-16T01:45:32;101373.44;;;0.27;85.68
24422;BME280;12600;53.326;-6.298;2022-12-16T01:48:34;101351.00;;;0.15;85.53
24422;BME280;12600;53.326;-6.298;2022-12-16T01:51:31;101375.53;;;0.25;85.83
24422;BME280;12600;53.326;-6.298;2022-12-16T01:54:25;101386.19;;;0.32;85.78
24422;BME280;12600;53.326;-6.298;2022-12-16T01:57:20;101378.81;;;0.27;85.94
24422;BME280;12600;53.326;-6.298;2022-12-16T02:00:13;101388.28;;;0.30;85.92
24422;BME280;12600;53.326;-6.298;2022-12-16T02:03:03;101380.44;;;0.28;85.71
24422;BME280;12600;53.326;-6.298;2022-12-16T02:05:53;101381.84;;;0.31;85.54
24422;BME280;12600;53.326;-6.298;2022-12-16T02:08:44;101379.22;;;0.24;85.02
24422;BME280;12600;53.326;-6.298;2022-12-16T02:12:12;101380.44;;;0.28;85.35
24422;BME280;12600;53.326;-6.298;2022-12-16T02:15:31;101391.03;;;0.23;85.82
24422;BME280;12600;53.326;-6.298;2022-12-16T02:18:33;101381.50;;;0.27;86.06
24422;BME280;12600;53.326;-6.298;2022-12-16T02:21:55;101382.53;;;0.26;86.51
24422;BME280;12600;53.326;-6.298;2022-12-16T02:28:21;101389.56;;;0.27;86.13
24422;BME280;12600;53.326;-6.298;2022-12-16T02:31:23;101383.19;;;0.21;85.96
24422;BME280;12600;53.326;-6.298;2022-12-16T02:34:23;101382.78;;;0.24;86.05
24422;BME280;12600;53.326;-6.298;2022-12-16T02:37:27;101382.31;;;0.27;85.95
24422;BME280;12600;53.326;-6.298;2022-12-16T02:40:25;101372.69;;;0.20;85.27
24422;BME280;12600;53.326;-6.298;2022-12-16T02:43:30;101363.41;;;0.16;85.44
24422;BME280;12600;53.326;-6.298;2022-12-16T02:46:27;101375.59;;;0.18;85.09
24422;BME280;12600;53.326;-6.298;2022-12-16T02:49:58;101377.06;;;0.14;85.48
24422;BME280;12600;53.326;-6.298;2022-12-16T02:52:48;101357.06;;;0.10;85.26
24422;BME280;12600;53.326;-6.298;2022-12-16T02:55:54;101363.69;;;0.08;85.28
24422;BME280;12600;53.326;-6.298;2022-12-16T02:58:52;101364.16;;;0.05;84.95
24422;BME280;12600;53.326;-6.298;2022-12-16T03:01:53;101369.53;;;0.05;85.04
24422;BME280;12600;53.326;-6.298;2022-12-16T03:04:51;101360.28;;;0.01;85.17
24422;BME280;12600;53.326;-6.298;2022-12-16T03:07:44;101355.56;;;-0.04;85.15
24422;BME280;12600;53.326;-6.298;2022-12-16T03:10:38;101361.28;;;-0.01;84.98
24422;BME280;12600;53.326;-6.298;2022-12-16T03:13:34;101350.69;;;-0.14;85.23
24422;BME280;12600;53.326;-6.298;2022-12-16T03:16:31;101356.06;;;-0.14;85.26
24422;BME280;12600;53.326;-6.298;2022-12-16T03:19:24;101360.56;;;-0.08;85.10
24422;BME280;12600;53.326;-6.298;2022-12-16T03:22:19;101354.84;;;-0.18;85.05
24422;BME280;12600;53.326;-6.298;2022-12-16T03:25:09;101350.09;;;-0.16;85.64
24422;BME280;12600;53.326;-6.298;2022-12-16T03:28:05;101348.25;;;-0.15;85.48
24422;BME280;12600;53.326;-6.298;2022-12-16T03:31:08;101353.38;;;-0.14;85.04
24422;BME280;12600;53.326;-6.298;2022-12-16T03:34:08;101343.97;;;-0.23;85.11
24422;BME280;12600;53.326;-6.298;2022-12-16T03:37:03;101340.66;;;-0.25;85.40
24422;BME280;12600;53.326;-6.298;2022-12-16T03:39:56;101350.38;;;-0.24;85.77
24422;BME280;12600;53.326;-6.298;2022-12-16T03:42:47;101350.38;;;-0.24;86.50
24422;BME280;12600;53.326;-6.298;2022-12-16T03:45:40;101341.94;;;-0.28;86.26
24422;BME280;12600;53.326;-6.298;2022-12-16T03:48:31;101340.88;;;-0.26;85.92
24422;BME280;12600;53.326;-6.298;2022-12-16T03:51:20;101348.88;;;-0.20;85.82
24422;BME280;12600;53.326;-6.298;2022-12-16T03:54:12;101350.53;;;-0.19;85.73
24422;BME280;12600;53.326;-6.298;2022-12-16T03:57:02;101345.59;;;-0.22;85.87
24422;BME280;12600;53.326;-6.298;2022-12-16T03:59:51;101335.28;;;-0.25;85.45
24422;BME280;12600;53.326;-6.298;2022-12-16T04:02:41;101323.59;;;-0.31;85.86
24422;BME280;12600;53.326;-6.298;2022-12-16T04:05:31;101325.06;;;-0.35;85.86
24422;BME280;12600;53.326;-6.298;2022-12-16T04:08:21;101337.31;;;-0.20;85.78
24422;BME280;12600;53.326;-6.298;2022-12-16T04:11:11;101343.97;;;-0.23;85.91
24422;BME280;12600;53.326;-6.298;2022-12-16T04:14:18;101345.00;;;-0.24;86.11
24422;BME280;12600;53.326;-6.298;2022-12-16T04:17:25;101341.94;;;-0.28;86.10
24422;BME280;12600;53.326;-6.298;2022-12-16T04:20:35;101344.38;;;-0.26;86.17
24422;BME280;12600;53.326;-6.298;2022-12-16T04:23:46;101356.56;;;-0.23;86.10
24422;BME280;12600;53.326;-6.298;2022-12-16T04:26:55;101341.72;;;-0.26;85.59
24422;BME280;12600;53.326;-6.298;2022-12-16T04:30:04;101340.06;;;-0.27;85.78
24422;BME280;12600;53.326;-6.298;2022-12-16T04:33:11;101334.09;;;-0.29;86.09
24422;BME280;12600;53.326;-6.298;2022-12-16T04:36:19;101336.09;;;-0.24;86.40
24422;BME280;12600;53.326;-6.298;2022-12-16T04:39:26;101335.28;;;-0.25;86.15
24422;BME280;12600;53.326;-6.298;2022-12-16T04:42:33;101331.59;;;-0.24;86.03
24422;BME280;12600;53.326;-6.298;2022-12-16T04:45:40;101321.28;;;-0.27;85.83
24422;BME280;12600;53.326;-6.298;2022-12-16T04:48:46;101327.22;;;-0.25;86.28
24422;BME280;12600;53.326;-6.298;2022-12-16T04:52:05;101324.06;;;-0.15;86.30
24422;BME280;12600;53.326;-6.298;2022-12-16T04:55:11;101320.69;;;-0.11;86.55
24422;BME280;12600;53.326;-6.298;2022-12-16T04:58:20;101318.59;;;-0.09;85.96
24422;BME280;12600;53.326;-6.298;2022-12-16T05:01:26;101324.19;;;-0.10;85.98
24422;BME280;12600;53.326;-6.298;2022-12-16T05:04:33;101328.75;;;-0.11;85.58
24422;BME280;12600;53.326;-6.298;2022-12-16T05:07:40;101325.69;;;-0.14;85.80
24422;BME280;12600;53.326;-6.298;2022-12-16T05:10:46;101319.50;;;-0.15;85.30
24422;BME280;12600;53.326;-6.298;2022-12-16T05:13:54;101318.88;;;-0.17;85.54
24422;BME280;12600;53.326;-6.298;2022-12-16T05:17:01;101314.34;;;-0.16;85.74
24422;BME280;12600;53.326;-6.298;2022-12-16T05:20:08;101310.84;;;-0.17;85.61
24422;BME280;12600;53.326;-6.298;2022-12-16T05:23:15;101310.09;;;-0.24;85.50
24422;BME280;12600;53.326;-6.298;2022-12-16T05:26:27;101303.88;;;-0.24;86.01
24422;BME280;12600;53.326;-6.298;2022-12-16T05:29:35;101300.19;;;-0.23;85.49
24422;BME280;12600;53.326;-6.298;2022-12-16T05:32:41;101300.84;;;-0.28;85.36
24422;BME280;12600;53.326;-6.298;2022-12-16T05:35:48;101311.13;;;-0.25;85.82
24422;BME280;12600;53.326;-6.298;2022-12-16T05:38:55;101308.66;;;-0.26;85.86
24422;BME280;12600;53.326;-6.298;2022-12-16T05:42:03;101303.06;;;-0.25;85.48
24422;BME280;12600;53.326;-6.298;2022-12-16T05:45:11;101304.13;;;-0.26;85.25
24422;BME280;12600;53.326;-6.298;2022-12-16T05:48:18;101303.75;;;-0.30;84.99
24422;BME280;12600;53.326;-6.298;2022-12-16T05:51:29;101295.91;;;-0.31;85.28
24422;BME280;12600;53.326;-6.298;2022-12-16T05:54:36;101305.44;;;-0.35;84.61
24422;BME280;12600;53.326;-6.298;2022-12-16T05:57:43;101298.88;;;-0.39;84.93
24422;BME280;12600;53.326;-6.298;2022-12-16T06:00:51;101298.88;;;-0.39;84.83
24422;BME280;12600;53.326;-6.298;2022-12-16T06:03:58;101297.22;;;-0.40;85.25
24422;BME280;12600;53.326;-6.298;2022-12-16T06:07:05;101299.25;;;-0.36;85.15
24422;BME280;12600;53.326;-6.298;2022-12-16T06:10:11;101297.97;;;-0.33;85.20
24422;BME280;12600;53.326;-6.298;2022-12-16T06:13:18;101296.34;;;-0.34;84.61
24422;BME280;12600;53.326;-6.298;2022-12-16T06:16:26;101288.75;;;-0.37;85.00
24422;BME280;12600;53.326;-6.298;2022-12-16T06:19:33;101276.59;;;-0.40;84.86
24422;BME280;12600;53.326;-6.298;2022-12-16T06:22:36;101285.59;;;-0.34;84.95
24422;BME280;12600;53.326;-6.298;2022-12-16T06:25:43;101283.97;;;-0.35;84.87
24422;BME280;12600;53.326;-6.298;2022-12-16T06:28:50;101274.38;;;-0.49;85.31
24422;BME280;12600;53.326;-6.298;2022-12-16T06:31:58;101287.09;;;-0.38;85.15
24422;BME280;12600;53.326;-6.298;2022-12-16T06:35:06;101294.34;;;-0.39;84.76
24422;BME280;12600;53.326;-6.298;2022-12-16T06:38:13;101279.09;;;-0.45;84.83
24422;BME280;12600;53.326;-6.298;2022-12-16T06:41:28;101286.47;;;-0.40;85.16
24422;BME280;12600;53.326;-6.298;2022-12-16T06:44:35;101292.53;;;-0.45;85.40
24422;BME280;12600;53.326;-6.298;2022-12-16T06:47:43;101296.03;;;-0.44;84.96
24422;BME280;12600;53.326;-6.298;2022-12-16T06:50:50;101301.78;;;-0.41;85.03
24422;BME280;12600;53.326;-6.298;2022-12-16T06:53:56;101296.84;;;-0.44;84.87
24422;BME280;12600;53.326;-6.298;2022-12-16T06:57:03;101301.63;;;-0.46;84.96
24422;BME280;12600;53.326;-6.298;2022-12-16T07:00:11;101300.13;;;-0.42;85.24
24422;BME280;12600;53.326;-6.298;2022-12-16T07:03:19;101291.72;;;-0.45;85.02
24422;BME280;12600;53.326;-6.298;2022-12-16T07:06:26;101289.63;;;-0.43;85.25
24422;BME280;12600;53.326;-6.298;2022-12-16T07:09:33;101295.81;;;-0.43;84.64
24422;BME280;12600;53.326;-6.298;2022-12-16T07:12:40;101297.91;;;-0.45;84.72
24422;BME280;12600;53.326;-6.298;2022-12-16T07:15:47;101292.75;;;-0.46;84.34
24422;BME280;12600;53.326;-6.298;2022-12-16T07:18:55;101284.53;;;-0.51;84.61
24422;BME280;12600;53.326;-6.298;2022-12-16T07:22:02;101290.72;;;-0.51;84.28
24422;BME280;12600;53.326;-6.298;2022-12-16T07:25:09;101295.50;;;-0.53;84.89
24422;BME280;12600;53.326;-6.298;2022-12-16T07:28:16;101290.13;;;-0.53;85.14
24422;BME280;12600;53.326;-6.298;2022-12-16T07:31:23;101293.25;;;-0.56;85.17
24422;BME280;12600;53.326;-6.298;2022-12-16T07:34:37;101299.81;;;-0.52;84.63
24422;BME280;12600;53.326;-6.298;2022-12-16T07:37:43;101295.72;;;-0.54;85.36
24422;BME280;12600;53.326;-6.298;2022-12-16T07:40:50;101295.72;;;-0.54;84.95
24422;BME280;12600;53.326;-6.298;2022-12-16T07:43:57;101293.19;;;-0.49;84.79
24422;BME280;12600;53.326;-6.298;2022-12-16T07:47:04;101289.53;;;-0.55;84.57
24422;BME280;12600;53.326;-6.298;2022-12-16T07:50:12;101298.19;;;-0.53;84.38
24422;BME280;12600;53.326;-6.298;2022-12-16T07:53:19;101300.25;;;-0.55;84.23
24422;BME280;12600;53.326;-6.298;2022-12-16T07:56:26;101290.41;;;-0.61;84.39
24422;BME280;12600;53.326;-6.298;2022-12-16T07:59:33;101305.22;;;-0.59;84.43
24422;BME280;12600;53.326;-6.298;2022-12-16T08:02:40;101305.22;;;-0.59;84.28
24422;BME280;12600;53.326;-6.298;2022-12-16T08:05:49;101308.97;;;-0.60;84.36
24422;BME280;12600;53.326;-6.298;2022-12-16T08:08:56;101308.16;;;-0.60;84.13
24422;BME280;12600;53.326;-6.298;2022-12-16T08:12:03;101312.09;;;-0.63;84.24
24422;BME280;12600;53.326;-6.298;2022-12-16T08:15:10;101310.47;;;-0.64;84.38
24422;BME280;12600;53.326;-6.298;2022-12-16T08:18:17;101317.47;;;-0.63;84.50
24422;BME280;12600;53.326;-6.298;2022-12-16T08:21:26;101307.78;;;-0.64;84.12
24422;BME280;12600;53.326;-6.298;2022-12-16T08:24:32;101297.31;;;-0.72;83.93
24422;BME280;12600;53.326;-6.298;2022-12-16T08:27:43;101306.78;;;-0.69;83.79
24422;BME280;12600;53.326;-6.298;2022-12-16T08:30:50;101302.28;;;-0.75;84.18
24422;BME280;12600;53.326;-6.298;2022-12-16T08:33:57;101308.88;;;-0.71;84.27
24422;BME280;12600;53.326;-6.298;2022-12-16T08:37:06;101308.22;;;-0.73;84.01
24422;BME280;12600;53.326;-6.298;2022-12-16T08:40:13;101316.28;;;-0.73;84.11
24422;BME280;12600;53.326;-6.298;2022-12-16T08:43:22;101299.25;;;-0.86;83.88
24422;BME280;12600;53.326;-6.298;2022-12-16T08:46:29;101321.06;;;-0.75;83.77
24422;BME280;12600;53.326;-6.298;2022-12-16T08:49:36;101320.88;;;-0.80;84.05
24422;BME280;12600;53.326;-6.298;2022-12-16T08:52:51;101306.72;;;-0.88;83.55
24422;BME280;12600;53.326;-6.298;2022-12-16T08:55:57;101327.50;;;-0.83;83.33
24422;BME280;12600;53.326;-6.298;2022-12-16T08:59:04;101335.13;;;-0.80;83.73
24422;BME280;12600;53.326;-6.298;2022-12-16T09:02:11;101330.59;;;-0.79;83.63
24422;BME280;12600;53.326;-6.298;2022-12-16T09:05:19;101335.97;;;-0.79;83.25
24422;BME280;12600;53.326;-6.298;2022-12-16T09:08:26;101328.72;;;-0.79;83.56
24422;BME280;12600;53.326;-6.298;2022-12-16T09:11:33;101329.16;;;-0.82;83.20
24422;BME280;12600;53.326;-6.298;2022-12-16T09:14:39;101326.88;;;-0.78;83.12
24422;BME280;12600;53.326;-6.298;2022-12-16T09:17:52;101335.50;;;-0.76;83.38
24422;BME280;12600;53.326;-6.298;2022-12-16T09:20:59;101340.44;;;-0.73;83.31
24422;BME280;12600;53.326;-6.298;2022-12-16T09:24:08;101337.56;;;-0.72;83.84
24422;BME280;12600;53.326;-6.298;2022-12-16T09:27:15;101332.38;;;-0.73;83.42
24422;BME280;12600;53.326;-6.298;2022-12-16T09:30:22;101328.06;;;-0.74;83.31
24422;BME280;12600;53.326;-6.298;2022-12-16T09:33:29;101335.03;;;-0.67;83.33
24422;BME280;12600;53.326;-6.298;2022-12-16T09:36:36;101335.47;;;-0.70;82.88
24422;BME280;12600;53.326;-6.298;2022-12-16T09:39:44;101326.81;;;-0.72;83.25
24422;BME280;12600;53.326;-6.298;2022-12-16T09:42:56;101340.78;;;-0.63;83.56
24422;BME280;12600;53.326;-6.298;2022-12-16T09:46:10;101334.16;;;-0.61;83.81
24422;BME280;12600;53.326;-6.298;2022-12-16T09:49:32;101338.22;;;-0.51;84.57
24422;BME280;12600;53.326;-6.298;2022-12-16T09:52:46;101336.28;;;-0.44;84.86
24422;BME280;12600;53.326;-6.298;2022-12-16T09:55:57;101328.25;;;-0.44;84.64
24422;BME280;12600;53.326;-6.298;2022-12-16T09:59:09;101336.38;;;-0.33;84.79
24422;BME280;12600;53.326;-6.298;2022-12-16T10:02:17;101334.69;;;-0.27;84.46
24422;BME280;12600;53.326;-6.298;2022-12-16T10:05:33;101334.28;;;-0.24;84.43
24422;BME280;12600;53.326;-6.298;2022-12-16T10:08:52;101331.13;;;-0.21;85.06
24422;BME280;12600;53.326;-6.298;2022-12-16T10:12:13;101341.59;;;-0.13;84.67
24422;BME280;12600;53.326;-6.298;2022-12-16T10:15:33;101334.94;;;-0.10;84.66
24422;BME280;12600;53.326;-6.298;2022-12-16T10:18:52;101335.13;;;-0.05;84.50
24422;BME280;12600;53.326;-6.298;2022-12-16T10:22:06;101336.53;;;-0.03;84.48
24422;BME280;12600;53.326;-6.298;2022-12-16T10:25:20;101339.38;;;0.03;84.90
24422;BME280;12600;53.326;-6.298;2022-12-16T10:28:43;101338.50;;;0.09;84.95
24422;BME280;12600;53.326;-6.298;2022-12-16T10:31:50;101333.25;;;0.14;84.94
24422;BME280;12600;53.326;-6.298;2022-12-16T10:34:57;101332.97;;;0.22;84.90
24422;BME280;12600;53.326;-6.298;2022-12-16T10:38:13;101312.66;;;0.26;85.03
24422;BME280;12600;53.326;-6.298;2022-12-16T10:41:27;101313.19;;;0.35;84.85
24422;BME280;12600;53.326;-6.298;2022-12-16T10:44:43;101317.56;;;0.47;85.01
24422;BME280;12600;53.326;-6.298;2022-12-16T10:47:53;101311.88;;;0.55;85.12
24422;BME280;12600;53.326;-6.298;2022-12-16T10:51:00;101307.13;;;0.58;85.39
24422;BME280;12600;53.326;-6.298;2022-12-16T10:54:29;101292.81;;;0.75;87.41
24422;BME280;12600;53.326;-6.298;2022-12-16T10:57:50;101300.06;;;1.17;87.45
24422;BME280;12600;53.326;-6.298;2022-12-16T11:01:02;101308.31;;;1.57;86.39
24422;BME280;12600;53.326;-6.298;2022-12-16T11:04:31;101296.59;;;1.86;85.78
24422;BME280;12600;53.326;-6.298;2022-12-16T11:07:52;101291.41;;;2.08;84.48
24422;BME280;12600;53.326;-6.298;2022-12-16T11:11:13;101306.81;;;2.36;83.81
24422;BME280;12600;53.326;-6.298;2022-12-16T11:14:23;101283.69;;;2.40;83.54
24422;BME280;12600;53.326;-6.298;2022-12-16T11:18:03;101297.50;;;2.56;82.93
24422;BME280;12600;53.326;-6.298;2022-12-16T11:21:13;101293.03;;;2.61;83.00
24422;BME280;12600;53.326;-6.298;2022-12-16T11:24:21;101286.09;;;2.65;83.28
24422;BME280;12600;53.326;-6.298;2022-12-16T11:27:27;101280.94;;;2.64;83.44
24422;BME280;12600;53.326;-6.298;2022-12-16T11:30:40;101285.03;;;2.66;83.37
24422;BME280;12600;53.326;-6.298;2022-12-16T11:33:48;101282.81;;;2.63;83.74
24422;BME280;12600;53.326;-6.298;2022-12-16T11:36:56;101275.78;;;2.62;83.26
24422;BME280;12600;53.326;-6.298;2022-12-16T11:40:13;101277.84;;;2.72;83.97
24422;BME280;12600;53.326;-6.298;2022-12-16T11:43:20;101274.28;;;2.83;83.99
24422;BME280;12600;53.326;-6.298;2022-12-16T11:46:29;101267.09;;;2.89;83.68
24422;BME280;12600;53.326;-6.298;2022-12-16T11:49:38;101266.13;;;2.95;83.30
24422;BME280;12600;53.326;-6.298;2022-12-16T11:52:52;101260.00;;;3.16;83.86
24422;BME280;12600;53.326;-6.298;2022-12-16T11:56:01;101258.69;;;3.91;84.06
24422;BME280;12600;53.326;-6.298;2022-12-16T11:59:14;101251.06;;;5.08;76.00
24422;BME280;12600;53.326;-6.298;2022-12-16T12:02:32;101254.56;;;6.30;75.76
24422;BME280;12600;53.326;-6.298;2022-12-16T12:05:53;101257.19;;;7.13;74.02
24422;BME280;12600;53.326;-6.298;2022-12-16T12:09:09;101255.53;;;7.63;70.84
24422;BME280;12600;53.326;-6.298;2022-12-16T12:12:27;101254.34;;;8.04;69.91
24422;BME280;12600;53.326;-6.298;2022-12-16T12:15:40;101233.63;;;8.08;66.90
24422;BME280;12600;53.326;-6.298;2022-12-16T12:18:53;101239.72;;;7.75;65.14
24422;BME280;12600;53.326;-6.298;2022-12-16T12:22:11;101244.13;;;7.35;67.31
24422;BME280;12600;53.326;-6.298;2022-12-16T12:25:30;101239.53;;;6.95;69.80
24422;BME280;12600;53.326;-6.298;2022-12-16T12:28:49;101229.66;;;6.43;69.48
24422;BME280;12600;53.326;-6.298;2022-12-16T12:32:05;101230.06;;;6.09;70.14
24422;BME280;12600;53.326;-6.298;2022-12-16T12:35:36;101235.28;;;5.74;70.59
24422;BME280;12600;53.326;-6.298;2022-12-16T12:38:59;101227.00;;;5.53;69.75
24422;BME280;12600;53.326;-6.298;2022-12-16T12:42:25;101220.94;;;5.36;70.07
24422;BME280;12600;53.326;-6.298;2022-12-16T12:45:55;101224.47;;;5.37;71.07
24422;BME280;12600;53.326;-6.298;2022-12-16T12:49:21;101226.44;;;5.46;71.84
24422;BME280;12600;53.326;-6.298;2022-12-16T12:53:00;101210.69;;;5.43;71.66
24422;BME280;12600;53.326;-6.298;2022-12-16T12:56:23;101194.66;;;5.31;70.29
24422;BME280;12600;53.326;-6.298;2022-12-16T12:59:46;101212.69;;;5.58;72.66
24422;BME280;12600;53.326;-6.298;2022-12-16T13:03:03;101214.38;;;5.64;72.93
24422;BME280;12600;53.326;-6.298;2022-12-16T13:06:13;101199.38;;;5.51;70.25
24422;BME280;12600;53.326;-6.298;2022-12-16T13:09:27;101210.47;;;5.50;71.19
24422;BME280;12600;53.326;-6.298;2022-12-16T13:12:36;101206.13;;;5.49;73.77
24422;BME280;12600;53.326;-6.298;2022-12-16T13:15:43;101211.81;;;5.47;74.03
24422;BME280;12600;53.326;-6.298;2022-12-16T13:19:42;101199.81;;;5.33;72.01
24422;BME280;12600;53.326;-6.298;2022-12-16T13:22:49;101210.00;;;5.21;69.68
24422;BME280;12600;53.326;-6.298;2022-12-16T13:26:03;101187.16;;;5.12;72.05
24422;BME280;12600;53.326;-6.298;2022-12-16T13:29:19;101194.47;;;5.11;71.40
24422;BME280;12600;53.326;-6.298;2022-12-16T13:32:27;101185.25;;;5.07;71.08
24422;BME280;12600;53.326;-6.298;2022-12-16T13:35:34;101176.41;;;4.85;69.68
24422;BME280;12600;53.326;-6.298;2022-12-16T13:38:45;101179.16;;;4.90;69.72
24422;BME280;12600;53.326;-6.298;2022-12-16T13:41:59;101163.41;;;4.82;69.18
24422;BME280;12600;53.326;-6.298;2022-12-16T13:45:35;101184.06;;;4.93;69.46
24422;BME280;12600;53.326;-6.298;2022-12-16T13:48:43;101180.53;;;4.92;69.53
24422;BME280;12600;53.326;-6.298;2022-12-16T13:51:59;101190.81;;;4.90;69.32
24422;BME280;12600;53.326;-6.298;2022-12-16T13:55:17;101190.69;;;4.80;68.27
24422;BME280;12600;53.326;-6.298;2022-12-16T13:58:35;101185.28;;;4.80;68.49
24422;BME280;12600;53.326;-6.298;2022-12-16T14:01:52;101180.69;;;4.81;68.70
24422;BME280;12600;53.326;-6.298;2022-12-16T14:04:59;101194.53;;;4.84;68.19
24422;BME280;12600;53.326;-6.298;2022-12-16T14:08:14;101186.63;;;4.77;68.34
24422;BME280;12600;53.326;-6.298;2022-12-16T14:11:29;101179.78;;;4.70;68.84
24422;BME280;12600;53.326;-6.298;2022-12-16T14:14:45;101183.03;;;4.67;68.57
24422;BME280;12600;53.326;-6.298;2022-12-16T14:17:58;101172.97;;;4.62;68.82
24422;BME280;12600;53.326;-6.298;2022-12-16T14:21:12;101180.78;;;4.59;68.14
24422;BME280;12600;53.326;-6.298;2022-12-16T14:24:25;101174.84;;;4.62;68.58
24422;BME280;12600;53.326;-6.298;2022-12-16T14:27:34;101164.28;;;4.60;67.66
24422;BME280;12600;53.326;-6.298;2022-12-16T14:31:03;101151.09;;;4.69;68.23
24422;BME280;12600;53.326;-6.298;2022-12-16T14:34:18;101166.78;;;4.67;66.76
24422;BME280;12600;53.326;-6.298;2022-12-16T14:37:34;101158.66;;;4.67;66.81
24422;BME280;12600;53.326;-6.298;2022-12-16T14:40:41;101160.31;;;4.68;66.66
24422;BME280;12600;53.326;-6.298;2022-12-16T14:43:48;101157.03;;;4.66;66.78
24422;BME280;12600;53.326;-6.298;2022-12-16T14:46:55;101143.72;;;4.59;66.31
24422;BME280;12600;53.326;-6.298;2022-12-16T14:50:20;101170.50;;;4.61;66.07
24422;BME280;12600;53.326;-6.298;2022-12-16T14:53:30;101157.25;;;4.59;66.41
24422;BME280;12600;53.326;-6.298;2022-12-16T14:56:37;101143.88;;;4.47;65.43
24422;BME280;12600;53.326;-6.298;2022-12-16T14:59:45;101155.56;;;4.53;65.43
24422;BME280;12600;53.326;-6.298;2022-12-16T15:02:54;101147.50;;;4.58;65.56
24422;BME280;12600;53.326;-6.298;2022-12-16T15:06:07;101156.22;;;4.65;65.49
24422;BME280;12600;53.326;-6.298;2022-12-16T15:09:20;101165.09;;;4.61;64.61
24422;BME280;12600;53.326;-6.298;2022-12-16T15:12:33;101164.50;;;4.54;64.23
24422;BME280;12600;53.326;-6.298;2022-12-16T15:15:45;101158.56;;;4.57;64.45
24422;BME280;12600;53.326;-6.298;2022-12-16T15:18:58;101152.78;;;4.48;64.41
24422;BME280;12600;53.326;-6.298;2022-12-16T15:22:12;101146.00;;;4.45;64.13
24422;BME280;12600;53.326;-6.298;2022-12-16T15:25:22;101143.03;;;4.47;63.71
24422;BME280;12600;53.326;-6.298;2022-12-16T15:28:38;101148.72;;;4.45;63.60
24422;BME280;12600;53.326;-6.298;2022-12-16T15:31:45;101161.50;;;4.50;63.37
24422;BME280;12600;53.326;-6.298;2022-12-16T15:34:52;101144.31;;;4.39;62.91
24422;BME280;12600;53.326;-6.298;2022-12-16T15:38:00;101146.00;;;4.45;62.87
24422;BME280;12600;53.326;-6.298;2022-12-16T15:41:20;101147.16;;;4.49;63.80
24422;BME280;12600;53.326;-6.298;2022-12-16T15:44:29;101151.88;;;4.37;63.78
24422;BME280;12600;53.326;-6.298;2022-12-16T15:47:37;101153.59;;;4.48;64.25
24422;BME280;12600;53.326;-6.298;2022-12-16T15:50:51;101156.53;;;4.42;64.10
24422;BME280;12600;53.326;-6.298;2022-12-16T15:54:02;101157.38;;;4.47;64.29
24422;BME280;12600;53.326;-6.298;2022-12-16T15:57:30;101151.44;;;4.45;64.11
24422;BME280;12600;53.326;-6.298;2022-12-16T16:00:37;101154.88;;;4.41;64.10
24422;BME280;12600;53.326;-6.298;2022-12-16T16:03:48;101134.50;;;4.28;64.02
24422;BME280;12600;53.326;-6.298;2022-12-16T16:06:56;101155.13;;;4.34;64.64
24422;BME280;12600;53.326;-6.298;2022-12-16T16:10:18;101144.69;;;4.21;64.82
24422;BME280;12600;53.326;-6.298;2022-12-16T16:13:25;101156.66;;;4.25;64.76